Time;durP1;ratioP1;P1;durP2;ratioP2;P2;SDS_P1;SDS_P2;PMS_P1;PMS_P2;Temp;Humidity;BMP_temperature;BMP_pressure;BME280_temperature;BME280_humidity;BME280_pressure;Samples;Min_cycle;Max_cycle;Signal;HPM_P1;HPM_P2
2021/08/09 00:02:35;;;;;;;;;;;11.90;99.90;;;;;;5079503;28;19925;-56
2021/08/09 00:05:24;;;;;;;;;;;11.90;99.90;;;;;;5090826;28;20397;-56
2021/08/09 00:08:12;;;;;;;;;;;11.90;99.90;;;;;;5074450;28;20381;-58
2021/08/09 00:11:02;;;;;;;;;;;11.90;99.90;;;;;;5077406;28;20372;-56
2021/08/09 00:13:51;;;;;;;;;;;11.90;99.90;;;;;;5080620;28;19924;-57
2021/08/09 00:16:41;;;;;;;;;;;11.90;99.90;;;;;;5066123;28;19932;-56
2021/08/09 00:19:29;;;;;;;;;;;11.80;99.90;;;;;;5086438;28;19927;-57
2021/08/09 00:22:17;;;;;;;;;;;11.70;99.90;;;;;;5078454;28;19924;-56
2021/08/09 00:25:06;;;;;;;;;;;11.60;99.90;;;;;;5087779;28;19947;-56
2021/08/09 00:27:55;;;;;;;;;;;11.60;99.90;;;;;;5089751;28;19924;-59
2021/08/09 00:30:44;;;;;;;;;;;11.60;99.90;;;;;;5070550;28;20113;-56
2021/08/09 00:33:33;;;;;;;;;;;11.60;99.90;;;;;;5080634;28;19924;-56
2021/08/09 00:36:22;;;;;;;;;;;11.60;99.90;;;;;;5085853;28;20034;-58
2021/08/09 00:39:12;;;;;;;;;;;11.60;99.90;;;;;;5101623;28;19935;-56
2021/08/09 00:42:01;;;;;;;;;;;11.60;99.90;;;;;;5069973;28;19925;-56
2021/08/09 00:44:52;;;;;;;;;;;11.60;99.90;;;;;;5100114;28;19931;-56
2021/08/09 00:47:41;;;;;;;;;;;11.60;99.90;;;;;;5071552;28;20513;-57
2021/08/09 00:50:32;;;;;;;;;;;11.60;99.90;;;;;;5102491;28;19973;-56
2021/08/09 00:53:23;;;;;;;;;;;11.70;99.90;;;;;;5075772;28;20013;-56
2021/08/09 00:56:11;;;;;;;;;;;11.70;99.90;;;;;;5105001;28;19936;-56
2021/08/09 00:59:00;;;;;;;;;;;11.80;99.90;;;;;;5076051;28;19928;-56
2021/08/09 01:01:52;;;;;;;;;;;11.90;99.90;;;;;;5073001;28;19931;-56
2021/08/09 01:04:41;;;;;;;;;;;11.80;99.90;;;;;;5104053;28;20395;-56
2021/08/09 01:07:33;;;;;;;;;;;11.80;99.90;;;;;;5101277;28;19952;-56
2021/08/09 01:13:53;;;;;;;;;;;11.70;99.90;;;;;;5108233;28;19925;-57
2021/08/09 01:16:45;;;;;;;;;;;11.70;99.90;;;;;;5090148;28;19934;-56
2021/08/09 01:19:50;;;;;;;;;;;11.80;99.90;;;;;;5075143;28;20400;-59
2021/08/09 01:22:46;;;;;;;;;;;11.90;99.90;;;;;;5106800;28;20296;-56
2021/08/09 01:25:38;;;;;;;;;;;11.80;99.90;;;;;;5089866;28;19957;-59
2021/08/09 01:28:33;;;;;;;;;;;11.80;99.90;;;;;;5100287;28;19928;-56
2021/08/09 01:31:22;;;;;;;;;;;11.80;99.90;;;;;;5075075;28;19971;-57
2021/08/09 01:34:12;;;;;;;;;;;11.80;99.90;;;;;;5105638;28;20368;-56
2021/08/09 01:37:02;;;;;;;;;;;11.80;99.90;;;;;;5083033;28;20354;-57
2021/08/09 01:39:53;;;;;;;;;;;11.80;99.90;;;;;;5081459;28;19924;-56
2021/08/09 01:42:43;;;;;;;;;;;11.80;99.90;;;;;;5106340;28;19930;-56
2021/08/09 01:45:59;;;;;;;;;;;11.80;99.90;;;;;;5085509;28;19923;-56
2021/08/09 01:48:54;;;;;;;;;;;11.80;99.90;;;;;;5092270;28;19931;-56
2021/08/09 01:51:43;;;;;;;;;;;11.80;99.90;;;;;;5101017;28;19958;-56
2021/08/09 01:54:31;;;;;;;;;;;11.80;99.90;;;;;;5090483;28;19931;-56
2021/08/09 01:57:20;;;;;;;;;;;11.80;99.90;;;;;;5083358;28;19931;-56
2021/08/09 02:00:11;;;;;;;;;;;11.80;99.90;;;;;;5097736;27;20288;-56
2021/08/09 02:03:05;;;;;;;;;;;11.70;99.90;;;;;;5090075;28;20468;-56
2021/08/09 02:05:56;;;;;;;;;;;11.70;99.90;;;;;;5097799;28;19924;-56
2021/08/09 02:08:46;;;;;;;;;;;11.60;99.90;;;;;;5106789;27;19931;-57
2021/08/09 02:11:39;;;;;;;;;;;11.60;99.90;;;;;;5075313;28;19941;-57
2021/08/09 02:14:31;;;;;;;;;;;11.60;99.90;;;;;;5106439;27;19924;-57
2021/08/09 02:17:22;;;;;;;;;;;11.50;99.90;;;;;;5096879;28;20422;-57
2021/08/09 02:20:14;;;;;;;;;;;11.50;99.90;;;;;;5080266;28;19924;-56
2021/08/09 02:23:19;;;;;;;;;;;11.50;99.90;;;;;;5105972;27;20020;-57
2021/08/09 02:26:09;;;;;;;;;;;11.60;99.90;;;;;;5078847;28;19930;-56
2021/08/09 02:29:01;;;;;;;;;;;11.60;99.90;;;;;;5071474;28;20026;-57
2021/08/09 02:31:51;;;;;;;;;;;11.60;99.90;;;;;;5066408;28;20038;-58
2021/08/09 02:34:42;;;;;;;;;;;11.50;99.90;;;;;;5085007;28;19924;-55
2021/08/09 02:37:33;;;;;;;;;;;11.50;99.90;;;;;;5109127;27;19924;-56
2021/08/09 02:40:23;;;;;;;;;;;11.40;99.90;;;;;;5105570;27;20039;-56
2021/08/09 02:43:13;;;;;;;;;;;11.40;99.90;;;;;;5079080;28;19928;-56
2021/08/09 02:46:13;;;;;;;;;;;11.40;99.90;;;;;;5077486;28;20058;-56
2021/08/09 02:49:03;;;;;;;;;;;11.30;99.90;;;;;;5090740;28;19931;-56
2021/08/09 02:51:53;;;;;;;;;;;11.30;99.90;;;;;;5101952;28;19979;-58
2021/08/09 02:54:46;;;;;;;;;;;11.30;99.90;;;;;;5126296;28;19924;-56
2021/08/09 02:57:36;;;;;;;;;;;11.30;99.90;;;;;;5120643;27;19944;-57
2021/08/09 03:00:25;;;;;;;;;;;11.20;99.90;;;;;;5117626;28;19925;-57
2021/08/09 03:03:15;;;;;;;;;;;11.20;99.90;;;;;;5100040;28;19928;-59
2021/08/09 03:06:05;;;;;;;;;;;11.20;99.90;;;;;;5107500;28;19976;-56
2021/08/09 03:08:55;;;;;;;;;;;11.10;99.90;;;;;;5095899;28;19931;-56
2021/08/09 03:11:45;;;;;;;;;;;11.10;99.90;;;;;;5098450;28;19908;-56
2021/08/09 03:14:33;;;;;;;;;;;11.10;99.90;;;;;;5108727;28;19925;-57
2021/08/09 03:17:22;;;;;;;;;;;11.10;99.90;;;;;;5089424;28;19909;-57
2021/08/09 03:20:13;;;;;;;;;;;11.10;99.90;;;;;;5100695;28;20359;-57
2021/08/09 03:23:01;;;;;;;;;;;11.10;99.90;;;;;;5080497;28;19934;-57
2021/08/09 03:25:49;;;;;;;;;;;11.00;99.90;;;;;;5130637;28;19938;-58
2021/08/09 03:28:39;;;;;;;;;;;11.00;99.90;;;;;;5076485;28;19936;-57
2021/08/09 03:31:28;;;;;;;;;;;11.00;99.90;;;;;;5109854;28;19908;-57
2021/08/09 03:34:17;;;;;;;;;;;11.00;99.90;;;;;;5102924;28;19983;-57
2021/08/09 03:37:06;;;;;;;;;;;11.00;99.90;;;;;;5080110;28;19925;-57
2021/08/09 03:39:56;;;;;;;;;;;11.00;99.90;;;;;;5096369;28;19991;-57
2021/08/09 03:42:45;;;;;;;;;;;11.00;99.90;;;;;;5130524;28;19914;-58
2021/08/09 03:45:35;;;;;;;;;;;11.00;99.90;;;;;;5111034;28;19915;-57
2021/08/09 03:48:25;;;;;;;;;;;11.00;99.90;;;;;;5102010;28;20011;-56
2021/08/09 03:51:16;;;;;;;;;;;11.00;99.90;;;;;;5103961;28;19924;-57
2021/08/09 03:54:05;;;;;;;;;;;11.00;99.90;;;;;;5092596;28;19963;-57
2021/08/09 03:56:54;;;;;;;;;;;11.00;99.90;;;;;;5109472;28;19947;-59
2021/08/09 03:59:43;;;;;;;;;;;11.00;99.90;;;;;;5107170;28;20013;-56
2021/08/09 04:02:32;;;;;;;;;;;11.10;99.90;;;;;;5085481;28;19939;-56
2021/08/09 04:05:37;;;;;;;;;;;11.00;99.90;;;;;;5088074;28;19924;-57
2021/08/09 04:08:26;;;;;;;;;;;11.00;99.90;;;;;;5091513;28;20483;-57
2021/08/09 04:11:14;;;;;;;;;;;11.00;99.90;;;;;;5078230;28;19924;-58
2021/08/09 04:14:06;;;;;;;;;;;10.90;99.90;;;;;;5078954;28;19924;-56
2021/08/09 04:16:56;;;;;;;;;;;11.00;99.90;;;;;;5085641;28;20310;-56
2021/08/09 04:19:45;;;;;;;;;;;11.00;99.90;;;;;;5080810;28;20039;-56
2021/08/09 04:22:34;;;;;;;;;;;11.00;99.90;;;;;;5104534;28;19924;-57
2021/08/09 04:25:24;;;;;;;;;;;11.10;99.90;;;;;;5085575;28;19928;-56
2021/08/09 04:28:14;;;;;;;;;;;11.10;99.90;;;;;;5105072;28;19924;-56
2021/08/09 04:31:03;;;;;;;;;;;11.20;99.90;;;;;;5095055;28;19928;-56
2021/08/09 04:33:52;;;;;;;;;;;11.20;99.90;;;;;;5104035;28;19928;-56
2021/08/09 04:36:42;;;;;;;;;;;11.20;99.90;;;;;;5072313;28;19924;-56
2021/08/09 04:39:30;;;;;;;;;;;11.30;99.90;;;;;;5079376;28;19928;-57
2021/08/09 04:42:20;;;;;;;;;;;11.40;99.90;;;;;;5108765;27;20295;-56
2021/08/09 04:45:34;;;;;;;;;;;11.50;99.90;;;;;;5098465;28;20391;-56
2021/08/09 04:48:23;;;;;;;;;;;11.60;99.90;;;;;;5087023;28;19928;-58
2021/08/09 04:51:12;;;;;;;;;;;11.80;99.90;;;;;;5103869;28;19935;-56
2021/08/09 04:54:06;;;;;;;;;;;12.00;99.90;;;;;;5104877;28;19989;-57
2021/08/09 04:56:55;;;;;;;;;;;12.10;99.90;;;;;;5076775;28;19931;-56
2021/08/09 04:59:44;;;;;;;;;;;12.20;99.90;;;;;;5063634;28;20007;-56
2021/08/09 05:02:33;;;;;;;;;;;12.20;99.90;;;;;;5084589;28;20356;-56
2021/08/09 05:05:22;;;;;;;;;;;12.20;99.90;;;;;;5083781;28;19994;-56
2021/08/09 05:08:12;;;;;;;;;;;12.20;99.90;;;;;;5102683;27;19928;-57
2021/08/09 05:11:03;;;;;;;;;;;12.20;99.90;;;;;;5085114;28;19924;-57
2021/08/09 05:14:09;;;;;;;;;;;12.10;99.90;;;;;;5105876;28;20441;-58
2021/08/09 05:16:59;;;;;;;;;;;12.10;99.90;;;;;;5084498;28;19924;-57
2021/08/09 05:19:48;;;;;;;;;;;12.10;99.90;;;;;;5089218;28;20372;-57
2021/08/09 05:22:36;;;;;;;;;;;12.10;99.90;;;;;;5087193;28;19928;-60
2021/08/09 05:25:24;;;;;;;;;;;12.10;99.90;;;;;;5090390;28;19926;-58
2021/08/09 05:28:14;;;;;;;;;;;12.10;99.90;;;;;;5080597;28;19924;-57
2021/08/09 05:31:07;;;;;;;;;;;12.20;99.90;;;;;;5068294;28;20019;-57
2021/08/09 05:33:56;;;;;;;;;;;12.40;99.90;;;;;;5083776;28;19924;-58
2021/08/09 05:36:45;;;;;;;;;;;12.70;99.90;;;;;;5086343;28;19932;-58
2021/08/09 05:39:35;;;;;;;;;;;12.80;99.90;;;;;;5073120;28;19925;-57
2021/08/09 05:42:25;;;;;;;;;;;13.10;99.90;;;;;;5070031;28;20384;-57
2021/08/09 05:45:18;;;;;;;;;;;13.30;99.90;;;;;;5100574;28;20307;-57
2021/08/09 05:48:09;;;;;;;;;;;13.70;99.90;;;;;;5072971;28;19994;-57
2021/08/09 05:50:59;;;;;;;;;;;13.90;99.90;;;;;;5087712;28;19924;-58
2021/08/09 05:53:50;;;;;;;;;;;13.90;99.90;;;;;;5102498;27;19928;-55
2021/08/09 05:56:39;;;;;;;;;;;14.10;99.90;;;;;;5075524;28;19932;-58
2021/08/09 05:59:28;;;;;;;;;;;14.50;99.90;;;;;;5093181;28;19924;-58
2021/08/09 06:02:19;;;;;;;;;;;14.60;99.90;;;;;;5069843;28;19925;-55
2021/08/09 06:05:10;;;;;;;;;;;14.40;99.90;;;;;;5102490;28;19924;-56
2021/08/09 06:07:58;;;;;;;;;;;14.40;99.90;;;;;;5097472;28;20071;-57
2021/08/09 06:10:48;;;;;;;;;;;14.50;99.90;;;;;;5082229;28;19980;-56
2021/08/09 06:13:38;;;;;;;;;;;14.60;99.90;;;;;;5074429;28;20394;-57
2021/08/09 06:16:28;;;;;;;;;;;14.80;99.90;;;;;;5109093;28;19931;-56
2021/08/09 06:19:21;;;;;;;;;;;15.00;99.90;;;;;;5111980;28;19989;-56
2021/08/09 06:22:10;;;;;;;;;;;15.20;99.90;;;;;;5076924;28;19928;-56
2021/08/09 06:25:05;;;;;;;;;;;15.80;99.90;;;;;;5087671;28;20002;-56
2021/08/09 06:27:53;;;;;;;;;;;16.50;99.90;;;;;;5074093;28;19928;-59
2021/08/09 06:30:43;;;;;;;;;;;17.10;99.90;;;;;;5087160;28;20010;-56
2021/08/09 06:33:37;;;;;;;;;;;17.70;99.90;;;;;;5109551;28;19979;-57
2021/08/09 06:36:28;;;;;;;;;;;18.30;99.90;;;;;;5088007;28;19928;-56
2021/08/09 06:39:19;;;;;;;;;;;19.00;99.90;;;;;;5104126;28;19931;-56
2021/08/09 06:42:11;;;;;;;;;;;19.90;99.90;;;;;;5071040;28;19924;-56
2021/08/09 06:45:05;;;;;;;;;;;20.20;99.90;;;;;;5085469;28;19956;-56
2021/08/09 06:48:19;;;;;;;;;;;20.40;99.90;;;;;;5064405;28;20007;-56
2021/08/09 06:51:08;;;;;;;;;;;22.00;99.90;;;;;;5078905;28;20304;-57
2021/08/09 06:53:59;;;;;;;;;;;22.50;99.90;;;;;;5075244;28;20007;-56
2021/08/09 06:56:48;;;;;;;;;;;24.10;98.10;;;;;;5081761;28;19928;-56
2021/08/09 06:59:37;;;;;;;;;;;26.40;93.20;;;;;;5063167;28;19972;-57
2021/08/09 07:02:29;;;;;;;;;;;27.20;90.00;;;;;;5012760;28;1825985;-57
2021/08/09 07:05:19;;;;;;;;;;;25.50;91.50;;;;;;5098431;27;19931;-57
2021/08/09 07:08:11;;;;;;;;;;;24.40;93.30;;;;;;5101083;28;20017;-56
2021/08/09 07:11:02;;;;;;;;;;;26.80;90.60;;;;;;5099501;28;19935;-57
2021/08/09 07:13:51;;;;;;;;;;;27.50;84.90;;;;;;5080801;28;20296;-56
2021/08/09 07:16:40;;;;;;;;;;;23.70;90.90;;;;;;5067028;28;19924;-56
2021/08/09 07:19:31;;;;;;;;;;;25.80;91.30;;;;;;5103795;27;19928;-57
2021/08/09 07:22:20;;;;;;;;;;;28.60;82.10;;;;;;5088115;28;19963;-59
2021/08/09 07:25:10;;;;;;;;;;;28.50;77.30;;;;;;5106210;27;19931;-57
2021/08/09 07:28:01;;;;;;;;;;;29.40;73.50;;;;;;5060618;28;19928;-57
2021/08/09 07:30:50;;;;;;;;;;;26.60;78.20;;;;;;5063300;28;19924;-56
2021/08/09 07:33:39;;;;;;;;;;;25.60;87.20;;;;;;5075137;28;20003;-57
2021/08/09 07:36:28;;;;;;;;;;;28.40;77.80;;;;;;5064867;28;19932;-59
2021/08/09 07:39:17;;;;;;;;;;;30.40;70.90;;;;;;5083214;28;19928;-57
2021/08/09 07:42:06;;;;;;;;;;;29.20;68.30;;;;;;5100938;28;20017;-57
2021/08/09 07:45:21;;;;;;;;;;;27.90;73.30;;;;;;5097778;28;20019;-57
2021/08/09 07:48:10;;;;;;;;;;;26.80;77.30;;;;;;5083431;28;19924;-57
2021/08/09 07:51:01;;;;;;;;;;;25.90;80.20;;;;;;5101496;28;20364;-57
2021/08/09 07:53:50;;;;;;;;;;;28.90;75.70;;;;;;5065521;28;20015;-56
2021/08/09 07:56:39;;;;;;;;;;;28.50;70.90;;;;;;5082844;28;19977;-57
2021/08/09 07:59:27;;;;;;;;;;;28.60;73.70;;;;;;5076647;28;20326;-59
2021/08/09 08:02:17;;;;;;;;;;;30.10;68.90;;;;;;5079936;28;19928;-57
2021/08/09 08:05:07;;;;;;;;;;;32.10;66.30;;;;;;5090121;28;20003;-57
2021/08/09 08:07:56;;;;;;;;;;;29.60;65.60;;;;;;5076992;28;20021;-60
2021/08/09 08:10:46;;;;;;;;;;;28.10;71.20;;;;;;5076803;28;19924;-57
2021/08/09 08:13:36;;;;;;;;;;;26.20;75.00;;;;;;5085499;28;19978;-59
2021/08/09 08:16:26;;;;;;;;;;;25.70;81.30;;;;;;5095017;28;19924;-57
2021/08/09 08:19:16;;;;;;;;;;;26.30;79.90;;;;;;5102762;28;19924;-60
2021/08/09 08:22:06;;;;;;;;;;;25.60;80.10;;;;;;5101280;28;20294;-58
2021/08/09 08:24:56;;;;;;;;;;;26.60;79.70;;;;;;5069891;28;19931;-58
2021/08/09 08:27:45;;;;;;;;;;;27.20;77.80;;;;;;5103777;27;19924;-57
2021/08/09 08:30:34;;;;;;;;;;;29.80;73.50;;;;;;5093639;28;20280;-58
2021/08/09 08:33:31;;;;;;;;;;;30.60;66.30;;;;;;5098108;28;19924;-57
2021/08/09 08:36:23;;;;;;;;;;;30.40;68.00;;;;;;5078123;28;19938;-57
2021/08/09 08:39:11;;;;;;;;;;;28.30;68.80;;;;;;5099864;28;19924;-57
2021/08/09 08:42:25;;;;;;;;;;;27.10;70.90;;;;;;5101610;28;19928;-57
2021/08/09 08:45:19;;;;;;;;;;;27.60;73.00;;;;;;5097732;28;19928;-58
2021/08/09 08:48:11;;;;;;;;;;;27.40;74.00;;;;;;5077531;28;19986;-57
2021/08/09 08:51:22;;;;;;;;;;;30.50;66.10;;;;;;5103798;28;19930;-58
2021/08/09 08:54:14;;;;;;;;;;;30.80;63.30;;;;;;5072651;28;20478;-57
2021/08/09 08:57:04;;;;;;;;;;;32.70;57.80;;;;;;5080550;28;20445;-57
2021/08/09 08:59:55;;;;;;;;;;;34.20;55.00;;;;;;5104968;28;20299;-57
2021/08/09 09:02:45;;;;;;;;;;;35.40;49.60;;;;;;5075328;28;19931;-57
2021/08/09 09:05:33;;;;;;;;;;;31.50;53.60;;;;;;5088242;28;19928;-57
2021/08/09 09:08:35;;;;;;;;;;;29.20;60.40;;;;;;5086053;28;19930;-57
2021/08/09 09:11:37;;;;;;;;;;;28.20;64.10;;;;;;5084319;28;19924;-60
2021/08/09 09:14:27;;;;;;;;;;;27.80;65.60;;;;;;5089576;28;19988;-57
2021/08/09 09:17:31;;;;;;;;;;;27.60;65.90;;;;;;5071950;28;19924;-58
2021/08/09 09:20:23;;;;;;;;;;;29.90;62.60;;;;;;5071060;28;20360;-57
2021/08/09 09:23:12;;;;;;;;;;;29.30;63.50;;;;;;5073221;28;20384;-57
2021/08/09 09:26:18;;;;;;;;;;;28.90;63.30;;;;;;5075693;28;19939;-57
2021/08/09 09:29:08;;;;;;;;;;;29.90;58.70;;;;;;5081758;28;19931;-59
2021/08/09 09:31:57;;;;;;;;;;;33.00;55.10;;;;;;5074720;28;20372;-60
2021/08/09 09:34:47;;;;;;;;;;;32.10;54.50;;;;;;5078746;28;19932;-57
2021/08/09 09:37:36;;;;;;;;;;;30.10;57.80;;;;;;5086909;28;19931;-57
2021/08/09 09:40:38;;;;;;;;;;;27.90;64.00;;;;;;5072797;28;19925;-56
2021/08/09 09:43:37;;;;;;;;;;;27.10;65.50;;;;;;5077704;28;19925;-56
2021/08/09 09:46:28;;;;;;;;;;;26.40;70.00;;;;;;5064451;28;19928;-56
2021/08/09 09:49:31;;;;;;;;;;;24.60;73.50;;;;;;5077024;28;19947;-58
2021/08/09 09:52:44;;;;;;;;;;;24.30;77.60;;;;;;5076956;28;19924;-56
2021/08/09 09:55:33;;;;;;;;;;;24.50;75.90;;;;;;5085157;28;20325;-56
2021/08/09 09:58:21;;;;;;;;;;;26.00;70.60;;;;;;5087740;28;20032;-56
2021/08/09 10:01:11;;;;;;;;;;;25.80;71.20;;;;;;5077620;28;20258;-55
2021/08/09 10:04:00;;;;;;;;;;;24.80;73.50;;;;;;5059079;28;19925;-56
2021/08/09 10:06:48;;;;;;;;;;;25.00;72.70;;;;;;5061022;28;19930;-56
2021/08/09 10:09:37;;;;;;;;;;;25.80;71.50;;;;;;5064407;28;19931;-57
2021/08/09 10:12:27;;;;;;;;;;;25.10;72.70;;;;;;5069417;28;20276;-57
2021/08/09 10:15:17;;;;;;;;;;;24.10;73.80;;;;;;5059178;28;19929;-57
2021/08/09 10:18:08;;;;;;;;;;;23.70;77.60;;;;;;5050169;28;20264;-57
2021/08/09 10:20:58;;;;;;;;;;;23.40;79.20;;;;;;5057148;28;19924;-57
2021/08/09 10:23:47;;;;;;;;;;;23.10;79.50;;;;;;5066935;28;19924;-57
2021/08/09 10:26:50;;;;;;;;;;;23.50;80.20;;;;;;5068839;28;20011;-57
2021/08/09 10:29:57;;;;;;;;;;;23.40;80.60;;;;;;5069002;28;19947;-57
2021/08/09 10:32:47;;;;;;;;;;;24.50;79.80;;;;;;5071200;28;19932;-57
2021/08/09 10:36:03;;;;;;;;;;;25.90;71.80;;;;;;5071527;28;19928;-59
2021/08/09 10:38:53;;;;;;;;;;;25.50;70.40;;;;;;5076582;28;19924;-55
2021/08/09 10:41:52;;;;;;;;;;;24.60;72.30;;;;;;5079687;28;19932;-56
2021/08/09 10:45:05;;;;;;;;;;;24.20;73.80;;;;;;5063563;28;19925;-55
2021/08/09 10:47:56;;;;;;;;;;;24.10;74.60;;;;;;5063254;28;19935;-55
2021/08/09 10:50:48;;;;;;;;;;;24.10;75.00;;;;;;5074200;28;19935;-55
2021/08/09 10:53:42;;;;;;;;;;;23.90;72.90;;;;;;5050207;28;19929;-60
2021/08/09 10:56:55;;;;;;;;;;;23.60;71.80;;;;;;5064511;28;20377;-56
2021/08/09 10:59:45;;;;;;;;;;;24.60;72.00;;;;;;5052432;28;19930;-56
2021/08/09 11:02:35;;;;;;;;;;;27.30;65.10;;;;;;5072498;28;19951;-55
2021/08/09 11:05:28;;;;;;;;;;;27.90;60.00;;;;;;5065543;28;19929;-56
2021/08/09 11:08:30;;;;;;;;;;;26.40;63.80;;;;;;5058598;28;20280;-56
2021/08/09 11:11:20;;;;;;;;;;;25.20;69.50;;;;;;5042257;28;19932;-56
2021/08/09 11:14:13;;;;;;;;;;;24.70;68.90;;;;;;5067421;28;20034;-56
2021/08/09 11:17:04;;;;;;;;;;;24.30;69.40;;;;;;5052005;28;20011;-56
2021/08/09 11:19:52;;;;;;;;;;;24.10;72.70;;;;;;5056330;28;20078;-56
2021/08/09 11:22:40;;;;;;;;;;;23.70;73.10;;;;;;5067347;28;19925;-56
2021/08/09 11:25:32;;;;;;;;;;;24.10;69.90;;;;;;5061714;28;19932;-56
2021/08/09 11:28:22;;;;;;;;;;;24.20;71.30;;;;;;5064329;28;20389;-56
2021/08/09 11:31:11;;;;;;;;;;;24.30;71.70;;;;;;5057218;28;20380;-56
2021/08/09 11:34:07;;;;;;;;;;;23.90;71.80;;;;;;5065253;28;19924;-56
2021/08/09 11:37:02;;;;;;;;;;;24.00;72.70;;;;;;5064033;28;19932;-58
2021/08/09 11:39:51;;;;;;;;;;;23.90;74.50;;;;;;5038028;28;19925;-56
2021/08/09 11:42:48;;;;;;;;;;;23.90;74.80;;;;;;5059673;28;20380;-56
2021/08/09 11:45:38;;;;;;;;;;;24.20;74.00;;;;;;5050820;28;20397;-57
2021/08/09 11:48:28;;;;;;;;;;;24.60;72.50;;;;;;5059275;28;19925;-57
2021/08/09 11:51:25;;;;;;;;;;;24.20;73.30;;;;;;5064482;28;20013;-55
2021/08/09 11:54:16;;;;;;;;;;;24.60;72.10;;;;;;5058157;28;20383;-55
2021/08/09 11:57:05;;;;;;;;;;;24.00;72.10;;;;;;5065699;28;20479;-55
2021/08/09 11:59:55;;;;;;;;;;;24.20;72.80;;;;;;5071564;28;19925;-56
2021/08/09 12:03:02;;;;;;;;;;;24.00;71.90;;;;;;5074584;28;19924;-55
2021/08/09 12:05:51;;;;;;;;;;;23.80;73.00;;;;;;5066812;28;19932;-55
2021/08/09 12:08:51;;;;;;;;;;;23.60;72.50;;;;;;5075769;28;20391;-56
2021/08/09 12:11:40;;;;;;;;;;;23.90;73.40;;;;;;5086788;28;20402;-56
2021/08/09 12:14:30;;;;;;;;;;;24.20;72.20;;;;;;5079537;28;19925;-55
2021/08/09 12:17:20;;;;;;;;;;;24.40;72.10;;;;;;5069557;28;19924;-55
2021/08/09 12:20:13;;;;;;;;;;;25.00;68.50;;;;;;5076716;28;20015;-55
2021/08/09 12:23:03;;;;;;;;;;;24.90;66.80;;;;;;5075648;28;20392;-55
2021/08/09 12:25:53;;;;;;;;;;;24.30;68.30;;;;;;5076146;28;19924;-56
2021/08/09 12:28:49;;;;;;;;;;;24.20;67.20;;;;;;5080448;28;19978;-55
2021/08/09 12:31:45;;;;;;;;;;;24.60;68.20;;;;;;5061676;28;19924;-55
2021/08/09 12:34:43;;;;;;;;;;;24.70;66.80;;;;;;5077200;28;20381;-57
2021/08/09 12:37:34;;;;;;;;;;;24.90;67.60;;;;;;5085527;28;20304;-56
2021/08/09 12:40:22;;;;;;;;;;;25.00;68.40;;;;;;5069769;28;19925;-56
2021/08/09 12:43:16;;;;;;;;;;;24.90;67.80;;;;;;5103440;27;19949;-56
2021/08/09 12:46:05;;;;;;;;;;;24.90;68.90;;;;;;5073361;28;20387;-58
2021/08/09 12:48:55;;;;;;;;;;;24.90;67.60;;;;;;5055045;28;19932;-56
2021/08/09 12:51:44;;;;;;;;;;;24.90;68.00;;;;;;5082903;28;20482;-56
2021/08/09 12:54:33;;;;;;;;;;;24.80;69.60;;;;;;5083229;28;19979;-56
2021/08/09 12:57:21;;;;;;;;;;;24.90;70.00;;;;;;5076567;28;20357;-56
2021/08/09 13:00:11;;;;;;;;;;;24.10;69.70;;;;;;5075779;28;19925;-57
2021/08/09 13:03:01;;;;;;;;;;;24.00;71.10;;;;;;5083295;28;20990;-55
2021/08/09 13:05:51;;;;;;;;;;;24.00;72.10;;;;;;5066473;28;20092;-55
2021/08/09 13:08:40;;;;;;;;;;;24.20;70.60;;;;;;5087806;28;19954;-55
2021/08/09 13:11:28;;;;;;;;;;;24.20;70.10;;;;;;5084257;28;19925;-55
2021/08/09 13:14:17;;;;;;;;;;;24.30;71.00;;;;;;5081319;28;19928;-55
2021/08/09 13:17:07;;;;;;;;;;;24.00;70.70;;;;;;5071298;28;19933;-56
2021/08/09 13:19:56;;;;;;;;;;;24.30;70.10;;;;;;5083323;28;19936;-57
2021/08/09 13:22:44;;;;;;;;;;;24.50;69.30;;;;;;5085577;28;19931;-55
2021/08/09 13:25:35;;;;;;;;;;;24.50;70.20;;;;;;5099520;28;20443;-55
2021/08/09 13:28:23;;;;;;;;;;;24.30;70.80;;;;;;5080950;28;19924;-55
2021/08/09 13:31:12;;;;;;;;;;;24.30;71.30;;;;;;5085968;28;20421;-55
2021/08/09 13:34:02;;;;;;;;;;;24.50;69.90;;;;;;5094956;28;20014;-58
2021/08/09 13:36:51;;;;;;;;;;;24.50;68.50;;;;;;5082492;28;19924;-55
2021/08/09 13:39:39;;;;;;;;;;;24.70;69.40;;;;;;5071966;28;19965;-56
2021/08/09 13:42:28;;;;;;;;;;;24.50;70.30;;;;;;5085724;28;20016;-56
2021/08/09 13:45:21;;;;;;;;;;;24.70;70.80;;;;;;5080426;28;19932;-56
2021/08/09 13:48:14;;;;;;;;;;;24.80;69.40;;;;;;5095476;28;19925;-56
2021/08/09 13:51:07;;;;;;;;;;;25.00;69.10;;;;;;5100323;28;19924;-56
2021/08/09 13:53:57;;;;;;;;;;;24.90;68.00;;;;;;5087710;28;19931;-56
2021/08/09 13:56:45;;;;;;;;;;;24.70;69.10;;;;;;5104491;28;19924;-56
2021/08/09 13:59:34;;;;;;;;;;;24.70;69.60;;;;;;5088742;28;19924;-56
2021/08/09 14:02:23;;;;;;;;;;;24.50;70.00;;;;;;5089132;28;19932;-56
2021/08/09 14:05:13;;;;;;;;;;;24.40;71.00;;;;;;5105236;28;19924;-56
2021/08/09 14:08:02;;;;;;;;;;;24.70;71.20;;;;;;5084596;28;19950;-58
2021/08/09 14:10:51;;;;;;;;;;;24.80;69.80;;;;;;5090320;28;20376;-56
2021/08/09 14:13:40;;;;;;;;;;;24.80;70.50;;;;;;5110915;28;19988;-56
2021/08/09 14:16:31;;;;;;;;;;;24.70;71.10;;;;;;5103264;28;19924;-56
2021/08/09 14:19:26;;;;;;;;;;;24.90;69.80;;;;;;5120561;28;19930;-56
2021/08/09 14:22:15;;;;;;;;;;;24.90;69.80;;;;;;5126019;27;19931;-57
2021/08/09 14:25:05;;;;;;;;;;;24.50;70.00;;;;;;5103479;28;19934;-57
2021/08/09 14:27:54;;;;;;;;;;;24.40;70.00;;;;;;5097558;28;19925;-56
2021/08/09 14:30:47;;;;;;;;;;;24.20;71.20;;;;;;5124196;27;19951;-56
2021/08/09 14:33:39;;;;;;;;;;;24.10;71.00;;;;;;5125036;27;20372;-57
2021/08/09 14:36:29;;;;;;;;;;;23.90;71.60;;;;;;5110856;28;19992;-57
2021/08/09 14:39:18;;;;;;;;;;;24.00;71.20;;;;;;5132998;27;19928;-56
2021/08/09 14:45:29;;;;;;;;;;;23.70;72.30;;;;;;5102696;28;19928;-56
2021/08/09 14:48:36;;;;;;;;;;;24.10;73.60;;;;;;5112826;28;19925;-56
2021/08/09 14:51:27;;;;;;;;;;;24.30;70.90;;;;;;5098991;28;19924;-56
2021/08/09 14:54:17;;;;;;;;;;;24.50;71.70;;;;;;5086477;28;19985;-55
2021/08/09 14:57:08;;;;;;;;;;;24.80;70.10;;;;;;5077525;28;19924;-56
2021/08/09 15:00:09;;;;;;;;;;;24.70;70.40;;;;;;5077395;28;19928;-55
2021/08/09 15:03:22;;;;;;;;;;;24.80;72.50;;;;;;5110576;28;19935;-56
2021/08/09 15:06:34;;;;;;;;;;;24.70;71.40;;;;;;5079261;28;19936;-56
2021/08/09 15:09:24;;;;;;;;;;;24.80;72.90;;;;;;5075699;28;20017;-59
2021/08/09 15:12:13;;;;;;;;;;;25.20;69.50;;;;;;5079317;28;19924;-56
2021/08/09 15:15:02;;;;;;;;;;;25.00;71.00;;;;;;5084657;28;20376;-56
2021/08/09 15:17:53;;;;;;;;;;;24.80;69.10;;;;;;5083515;28;19924;-56
2021/08/09 15:20:41;;;;;;;;;;;24.70;68.60;;;;;;5068541;28;19963;-56
2021/08/09 15:23:29;;;;;;;;;;;24.70;69.10;;;;;;5092557;28;19924;-56
2021/08/09 15:26:17;;;;;;;;;;;24.70;69.80;;;;;;5083469;28;19924;-56
2021/08/09 15:29:06;;;;;;;;;;;24.80;68.40;;;;;;5092836;28;19928;-56
2021/08/09 15:31:54;;;;;;;;;;;25.20;69.40;;;;;;5067127;28;20339;-56
2021/08/09 15:34:45;;;;;;;;;;;25.60;66.60;;;;;;5092439;28;19931;-57
2021/08/09 15:37:33;;;;;;;;;;;25.70;66.10;;;;;;5092921;28;19993;-56
2021/08/09 15:40:21;;;;;;;;;;;26.40;64.10;;;;;;5083189;28;19928;-57
2021/08/09 15:43:12;;;;;;;;;;;26.40;65.00;;;;;;5083444;28;19928;-57
2021/08/09 15:46:01;;;;;;;;;;;26.40;65.50;;;;;;5072204;28;19934;-57
2021/08/09 15:52:04;;;;;;;;;;;25.80;64.80;;;;;;5089836;28;20015;-57
2021/08/09 15:54:52;;;;;;;;;;;25.60;64.50;;;;;;5085209;28;19963;-57
2021/08/09 15:57:41;;;;;;;;;;;25.60;64.90;;;;;;5086759;28;19924;-57
2021/08/09 16:00:29;;;;;;;;;;;25.50;66.10;;;;;;5080041;28;19942;-57
2021/08/09 16:03:18;;;;;;;;;;;25.40;65.00;;;;;;5078807;28;20412;-59
2021/08/09 16:06:09;;;;;;;;;;;25.20;64.90;;;;;;5075167;28;20025;-59
2021/08/09 16:08:58;;;;;;;;;;;25.00;66.00;;;;;;5068075;28;19925;-59
2021/08/09 16:11:49;;;;;;;;;;;24.80;66.30;;;;;;5076402;28;19931;-57
2021/08/09 16:14:37;;;;;;;;;;;24.70;66.90;;;;;;5073330;28;19924;-57
2021/08/09 16:17:27;;;;;;;;;;;24.70;67.90;;;;;;5078327;28;19933;-57
2021/08/09 16:20:15;;;;;;;;;;;24.70;67.60;;;;;;5083754;28;19977;-57
2021/08/09 16:23:04;;;;;;;;;;;24.60;68.20;;;;;;5085054;28;20014;-56
2021/08/09 16:25:55;;;;;;;;;;;24.50;68.80;;;;;;5072174;28;20050;-58
2021/08/09 16:28:44;;;;;;;;;;;24.50;67.80;;;;;;5078265;28;19974;-56
2021/08/09 16:31:33;;;;;;;;;;;24.40;67.60;;;;;;5065178;28;19978;-57
2021/08/09 16:34:22;;;;;;;;;;;24.40;68.40;;;;;;5076352;28;19924;-57
2021/08/09 16:37:10;;;;;;;;;;;24.50;68.20;;;;;;5077602;28;19936;-56
2021/08/09 16:39:59;;;;;;;;;;;24.60;68.30;;;;;;5080098;28;19931;-56
2021/08/09 16:42:49;;;;;;;;;;;24.50;69.80;;;;;;5077815;28;20411;-58
2021/08/09 16:45:39;;;;;;;;;;;24.60;69.00;;;;;;5065759;28;19939;-56
2021/08/09 16:48:30;;;;;;;;;;;24.70;68.50;;;;;;5081991;28;19931;-57